createdAt,value
2023-05-29T00:02:17.325Z,101605.47
2023-05-29T00:04:44.249Z,101610.97
2023-05-29T00:07:11.234Z,101612.91
2023-05-29T00:09:38.058Z,101609.50
2023-05-29T00:12:06.756Z,101611.41
2023-05-29T00:14:33.573Z,101612.44
2023-05-29T00:17:00.441Z,101620.63
2023-05-29T00:19:30.792Z,101627.91
2023-05-29T00:21:57.593Z,101625.41
2023-05-29T00:24:24.419Z,101623.66
2023-05-29T00:26:51.356Z,101631.88
2023-05-29T00:29:18.183Z,101636.47
2023-05-29T00:31:45.152Z,101642.88
2023-05-29T00:34:12.001Z,101645.69
2023-05-29T00:36:39.415Z,101636.91
2023-05-29T00:39:06.288Z,101633.44
2023-05-29T00:41:33.207Z,101652.38
2023-05-29T00:44:00.040Z,101647.13
2023-05-29T00:46:27.253Z,101652.59
2023-05-29T00:48:54.858Z,101656.28
2023-05-29T00:51:21.807Z,101660.84
2023-05-29T00:53:51.476Z,101656.47
2023-05-29T00:56:19.231Z,101661.91
2023-05-29T00:58:46.316Z,101654.84
2023-05-29T01:01:13.572Z,101660.25
2023-05-29T01:03:42.444Z,101656.72
2023-05-29T01:06:11.255Z,101655.03
2023-05-29T01:08:38.713Z,101658.63
2023-05-29T01:11:38.215Z,101661.38
2023-05-29T01:14:10.976Z,101662.34
2023-05-29T01:17:26.996Z,101659.75
2023-05-29T01:20:35.495Z,101662.59
2023-05-29T01:23:28.015Z,101660.00
2023-05-29T01:26:32.832Z,101666.34
2023-05-29T01:29:03.833Z,101674.50
2023-05-29T01:31:32.268Z,101668.31
2023-05-29T01:34:01.254Z,101681.78
2023-05-29T01:36:28.436Z,101679.19
2023-05-29T01:38:58.492Z,101676.59
2023-05-29T01:41:26.397Z,101686.50
2023-05-29T01:43:54.150Z,101686.56
2023-05-29T01:46:22.864Z,101683.00
2023-05-29T01:48:50.262Z,101686.66
2023-05-29T01:51:17.141Z,101685.84
2023-05-29T01:53:45.202Z,101685.03
2023-05-29T01:56:12.464Z,101694.91
2023-05-29T01:58:42.413Z,101694.09
2023-05-29T02:01:12.816Z,101703.94
2023-05-29T02:03:39.753Z,101695.94
2023-05-29T02:06:07.854Z,101700.41
2023-05-29T02:08:34.716Z,101703.13
2023-05-29T02:11:01.544Z,101704.97
2023-05-29T02:13:28.416Z,101717.50
2023-05-29T02:15:55.227Z,101705.06
2023-05-29T02:18:22.069Z,101707.75
2023-05-29T02:20:49.200Z,101707.81
2023-05-29T02:23:16.485Z,101709.66
2023-05-29T02:25:43.769Z,101710.56
2023-05-29T02:28:10.832Z,101707.03
2023-05-29T02:30:37.692Z,101708.81
2023-05-29T02:33:04.848Z,101696.28
2023-05-29T02:35:31.715Z,101699.88
2023-05-29T02:37:58.568Z,101696.31
2023-05-29T02:40:25.487Z,101699.91
2023-05-29T02:42:52.464Z,101696.38
2023-05-29T02:45:20.226Z,101694.59
2023-05-29T02:47:47.106Z,101699.09
2023-05-29T02:50:15.680Z,101699.09
2023-05-29T02:52:42.816Z,101700.91
2023-05-29T02:55:09.892Z,101707.13
2023-05-29T02:57:36.735Z,101702.66
2023-05-29T03:00:08.578Z,101707.16
2023-05-29T03:02:38.656Z,101703.59
2023-05-29T03:05:06.052Z,101703.59
2023-05-29T03:07:33.013Z,101703.59
2023-05-29T03:10:00.234Z,101706.34
2023-05-29T03:12:28.952Z,101703.66
2023-05-29T03:14:57.428Z,101705.44
2023-05-29T03:17:24.542Z,101704.56
2023-05-29T03:19:52.047Z,101708.19
2023-05-29T03:22:19.075Z,101705.53
2023-05-29T03:24:46.255Z,101704.69
2023-05-29T03:27:13.057Z,101715.41
2023-05-29T03:29:39.928Z,101712.78
2023-05-29T03:32:06.875Z,101721.75
2023-05-29T03:34:33.701Z,101716.41
2023-05-29T03:37:00.577Z,101722.66
2023-05-29T03:39:27.973Z,101724.44
2023-05-29T03:41:54.766Z,101728.06
2023-05-29T03:44:21.581Z,101726.28
2023-05-29T03:46:48.472Z,101727.19
2023-05-29T03:49:15.356Z,101726.34
2023-05-29T03:51:42.210Z,101723.66
2023-05-29T03:54:09.042Z,101729.91
2023-05-29T03:56:37.026Z,101729.03
2023-05-29T03:59:04.084Z,101728.13
2023-05-29T04:01:31.012Z,101723.66
2023-05-29T04:03:57.960Z,101721.88
2023-05-29T04:06:24.944Z,101724.56
2023-05-29T04:08:51.787Z,101729.91
2023-05-29T04:11:21.757Z,101731.75
2023-05-29T04:13:49.142Z,101736.22
2023-05-29T04:16:16.642Z,101732.66
2023-05-29T04:18:43.617Z,101739.78
2023-05-29T04:21:11.239Z,101735.31
2023-05-29T04:23:38.099Z,101742.47
2023-05-29T04:26:06.532Z,101742.44
2023-05-29T04:28:33.457Z,101741.56
2023-05-29T04:31:01.500Z,101741.56
2023-05-29T04:33:29.404Z,101749.59
2023-05-29T04:35:56.512Z,101749.59
2023-05-29T04:38:26.279Z,101744.25
2023-05-29T04:40:58.420Z,101749.56
2023-05-29T04:43:27.258Z,101754.06
2023-05-29T04:45:54.729Z,101744.25
2023-05-29T04:48:21.549Z,101746.94
2023-05-29T04:50:49.489Z,101750.50
2023-05-29T04:53:17.117Z,101743.41
2023-05-29T04:55:44.222Z,101755.00
2023-05-29T04:58:13.310Z,101749.66
2023-05-29T05:00:40.195Z,101753.22
2023-05-29T05:03:07.342Z,101756.78
2023-05-29T05:05:34.285Z,101753.22
2023-05-29T05:08:01.148Z,101752.34
2023-05-29T05:10:27.998Z,101750.50
2023-05-29T05:12:54.919Z,101752.28
2023-05-29T05:15:21.820Z,101755.84
2023-05-29T05:17:48.717Z,101752.28
2023-05-29T05:20:16.265Z,101754.06
2023-05-29T05:22:43.311Z,101756.75
2023-05-29T05:25:10.250Z,101757.59
2023-05-29T05:27:37.100Z,101761.16
2023-05-29T05:30:07.925Z,101762.00
2023-05-29T05:32:36.180Z,101762.88
2023-05-29T05:35:04.332Z,101774.44
2023-05-29T05:37:31.530Z,101776.22
2023-05-29T05:39:59.254Z,101772.59
2023-05-29T05:42:26.127Z,101776.19
2023-05-29T05:44:53.667Z,101776.19
2023-05-29T05:47:20.494Z,101777.97
2023-05-29T05:49:47.336Z,101787.78
2023-05-29T05:52:14.163Z,101779.78
2023-05-29T05:54:41.119Z,101777.97
2023-05-29T05:57:08.395Z,101776.22
2023-05-29T05:59:35.559Z,101774.44
2023-05-29T06:02:02.821Z,101772.59
2023-05-29T06:04:29.696Z,101774.34
2023-05-29T06:06:56.869Z,101778.78
2023-05-29T06:09:23.690Z,101786.78
2023-05-29T06:11:50.999Z,101787.63
2023-05-29T06:14:17.905Z,101789.41
2023-05-29T06:16:44.777Z,101789.41
2023-05-29T06:19:11.770Z,101789.41
2023-05-29T06:21:38.606Z,101800.13
2023-05-29T06:24:05.637Z,101801.91
2023-05-29T06:26:32.481Z,101792.06
2023-05-29T06:28:59.383Z,101791.19
2023-05-29T06:31:26.487Z,101792.94
2023-05-29T06:33:53.379Z,101795.59
2023-05-29T06:36:20.188Z,101801.75
2023-05-29T06:38:51.600Z,101798.09
2023-05-29T06:41:19.699Z,101798.09
2023-05-29T06:43:46.562Z,101801.66
2023-05-29T06:46:16.081Z,101810.56
2023-05-29T06:48:43.053Z,101823.06
2023-05-29T06:51:10.322Z,101814.06
2023-05-29T06:53:37.384Z,101822.03
2023-05-29T06:56:05.063Z,101814.84
2023-05-29T06:58:32.659Z,101826.44
2023-05-29T07:01:03.424Z,101833.56
2023-05-29T07:03:32.033Z,101836.22
2023-05-29T07:05:58.950Z,101838.88
2023-05-29T07:08:26.329Z,101838.88
2023-05-29T07:10:53.314Z,101838.88
2023-05-29T07:13:20.307Z,101834.41
2023-05-29T07:15:47.281Z,101838.00
2023-05-29T07:18:14.225Z,101835.31
2023-05-29T07:20:42.859Z,101837.03
2023-05-29T07:23:09.784Z,101832.56
2023-05-29T07:25:36.644Z,101824.44
2023-05-29T07:28:14.639Z,101837.69
2023-05-29T07:30:48.342Z,101838.47
2023-05-29T07:33:15.294Z,101835.75
2023-05-29T07:35:42.094Z,101834.84
2023-05-29T07:38:09.123Z,101837.47
2023-05-29T07:40:35.947Z,101832.97
2023-05-29T07:43:02.891Z,101843.59
2023-05-29T07:45:29.699Z,101843.56
2023-05-29T07:47:56.592Z,101839.94
2023-05-29T07:50:24.601Z,101847.91
2023-05-29T07:52:51.489Z,101853.22
2023-05-29T07:55:18.376Z,101840.69
2023-05-29T07:57:45.216Z,101845.03
2023-05-29T08:00:14.393Z,101844.94
2023-05-29T08:02:41.420Z,101844.84
2023-05-29T08:05:09.057Z,101841.25
2023-05-29T08:07:37.771Z,101841.16
2023-05-29T08:10:06.740Z,101833.94
2023-05-29T08:12:35.477Z,101833.88
2023-05-29T08:15:03.912Z,101837.44
2023-05-29T08:17:31.360Z,101835.59
2023-05-29T08:19:58.247Z,101835.56
2023-05-29T08:22:30.812Z,101838.09
2023-05-29T08:24:57.722Z,101834.44
2023-05-29T08:27:24.590Z,101837.03
2023-05-29T08:29:51.623Z,101839.66
2023-05-29T08:32:18.477Z,101845.97
2023-05-29T08:34:47.087Z,101844.19
2023-05-29T08:37:14.588Z,101841.41
2023-05-29T08:39:41.484Z,101844.06
2023-05-29T08:42:23.454Z,101846.66
2023-05-29T08:44:55.321Z,101840.34
2023-05-29T08:47:34.449Z,101843.84
2023-05-29T08:50:02.510Z,101832.13
2023-05-29T08:52:36.557Z,101837.41
2023-05-29T08:55:03.678Z,101833.75
2023-05-29T08:57:31.708Z,101852.50
2023-05-29T08:59:59.536Z,101850.69
2023-05-29T09:02:26.436Z,101850.59
2023-05-29T09:04:55.367Z,101848.72
2023-05-29T09:07:23.349Z,101843.25
2023-05-29T09:09:50.681Z,101848.53
2023-05-29T09:12:18.196Z,101843.97
2023-05-29T09:14:46.226Z,101848.38
2023-05-29T09:17:14.691Z,101859.06
2023-05-29T09:19:42.249Z,101848.25
2023-05-29T09:22:15.927Z,101855.41
2023-05-29T09:24:48.580Z,101855.41
2023-05-29T09:27:15.974Z,101857.13
2023-05-29T09:29:44.754Z,101860.63
2023-05-29T09:32:17.808Z,101848.97
2023-05-29T09:34:45.458Z,101854.28
2023-05-29T09:37:14.856Z,101847.91
2023-05-29T09:39:42.944Z,101839.81
2023-05-29T09:42:13.217Z,101845.06
2023-05-29T09:44:45.598Z,101828.84
2023-05-29T09:47:18.649Z,101827.69
2023-05-29T09:49:49.309Z,101816.78
2023-05-29T09:52:22.097Z,101824.72
2023-05-29T09:54:50.011Z,101817.44
2023-05-29T09:57:18.670Z,101819.16
2023-05-29T09:59:46.306Z,101824.50
2023-05-29T10:02:16.711Z,101827.94
2023-05-29T10:04:45.045Z,101825.94
2023-05-29T10:07:29.063Z,101825.72
2023-05-29T10:10:10.211Z,101823.81
2023-05-29T10:12:40.621Z,101827.19
2023-05-29T10:15:16.837Z,101823.38
2023-05-29T10:18:35.903Z,101816.81
2023-05-29T10:21:03.342Z,101818.47
2023-05-29T10:23:31.623Z,101825.44
2023-05-29T10:26:16.522Z,101824.44
2023-05-29T10:28:53.897Z,101827.13
2023-05-29T10:31:54.339Z,101805.56
2023-05-29T10:34:43.009Z,101799.22
2023-05-29T10:37:37.067Z,101802.69
2023-05-29T10:40:13.768Z,101797.13
2023-05-29T10:42:48.988Z,101806.75
2023-05-29T10:45:29.363Z,101801.22
2023-05-29T10:47:56.435Z,101804.72
2023-05-29T10:50:43.724Z,101786.56
2023-05-29T10:53:12.216Z,101791.84
2023-05-29T10:55:41.199Z,101789.78
2023-05-29T10:58:09.578Z,101798.53
2023-05-29T11:00:47.142Z,101796.50
2023-05-29T11:03:31.563Z,101794.53
2023-05-29T11:05:59.446Z,101792.59
2023-05-29T11:08:46.921Z,101792.34
2023-05-29T11:11:31.743Z,101791.19
2023-05-29T11:14:03.000Z,101788.72
2023-05-29T11:16:33.525Z,101786.75
2023-05-29T11:19:08.744Z,101803.72
2023-05-29T11:21:47.665Z,101795.59
2023-05-29T11:24:34.228Z,101791.13
2023-05-29T11:27:07.671Z,101783.81
2023-05-29T11:29:34.601Z,101791.66
2023-05-29T11:32:13.664Z,101786.06
2023-05-29T11:34:42.574Z,101786.97
2023-05-29T11:37:09.561Z,101785.97
2023-05-29T11:39:39.585Z,101780.56
2023-05-29T11:42:07.964Z,101787.72
2023-05-29T11:44:34.862Z,101783.19
2023-05-29T11:47:06.770Z,101787.44
2023-05-29T11:49:36.339Z,101792.72
2023-05-29T11:52:15.612Z,101787.09
2023-05-29T11:54:48.849Z,101783.28
2023-05-29T11:57:22.708Z,101768.72
2023-05-29T11:59:53.197Z,101771.22
2023-05-29T12:02:20.677Z,101763.72
2023-05-29T12:05:05.826Z,101767.72
2023-05-29T12:07:33.023Z,101766.59
2023-05-29T12:10:14.212Z,101762.88
2023-05-29T12:12:41.305Z,101762.94
2023-05-29T12:15:09.610Z,101767.41
2023-05-29T12:17:37.490Z,101770.75
2023-05-29T12:20:09.265Z,101757.78
2023-05-29T12:22:38.264Z,101762.72
2023-05-29T12:25:17.073Z,101755.16
2023-05-29T12:27:48.051Z,101762.00
2023-05-29T12:30:31.348Z,101765.38
2023-05-29T12:33:02.916Z,101771.41
2023-05-29T12:35:31.068Z,101771.28
2023-05-29T12:38:09.440Z,101775.50
2023-05-29T12:40:37.976Z,101775.25
2023-05-29T12:43:08.026Z,101764.09
2023-05-29T12:45:35.500Z,101763.94
2023-05-29T12:48:07.799Z,101760.19
2023-05-29T12:50:39.795Z,101759.28
2023-05-29T12:53:15.077Z,101754.75
2023-05-29T12:55:44.156Z,101753.97
2023-05-29T12:58:16.708Z,101737.63
2023-05-29T13:00:46.447Z,101748.38
2023-05-29T13:03:13.871Z,101748.38
2023-05-29T13:05:40.978Z,101751.97
2023-05-29T13:08:08.891Z,101742.72
2023-05-29T13:10:36.101Z,101755.97
2023-05-29T13:13:03.663Z,101750.97
2023-05-29T13:15:31.118Z,101747.84
2023-05-29T13:17:58.008Z,101753.94
2023-05-29T13:20:25.011Z,101747.50
2023-05-29T13:22:52.024Z,101750.97
2023-05-29T13:25:22.386Z,101763.50
2023-05-29T13:27:52.420Z,101748.88
2023-05-29T13:30:19.762Z,101746.88
2023-05-29T13:32:46.669Z,101750.13
2023-05-29T13:35:13.950Z,101749.88
2023-05-29T13:37:41.129Z,101753.28
2023-05-29T13:40:10.315Z,101740.41
2023-05-29T13:42:40.410Z,101743.69
2023-05-29T13:45:08.766Z,101741.78
2023-05-29T13:47:36.945Z,101742.84
2023-05-29T13:50:04.832Z,101742.03
2023-05-29T13:52:31.805Z,101734.78
2023-05-29T13:55:05.781Z,101736.50
2023-05-29T13:57:32.927Z,101732.75
2023-05-29T13:59:59.748Z,101736.09
2023-05-29T14:02:26.866Z,101734.06
2023-05-29T14:04:53.845Z,101734.72
2023-05-29T14:07:20.932Z,101729.84
2023-05-29T14:09:47.892Z,101728.75
2023-05-29T14:12:17.476Z,101733.13
2023-05-29T14:14:44.422Z,101729.44
2023-05-29T14:17:11.486Z,101733.97
2023-05-29T14:19:38.339Z,101733.09
2023-05-29T14:22:05.742Z,101731.31
2023-05-29T14:24:32.567Z,101715.03
2023-05-29T14:26:59.435Z,101718.63
2023-05-29T14:29:26.956Z,101713.94
2023-05-29T14:31:54.523Z,101719.31
2023-05-29T14:34:21.389Z,101722.97
2023-05-29T14:36:51.687Z,101726.72
2023-05-29T14:39:20.327Z,101722.34
2023-05-29T14:41:49.744Z,101717.03
2023-05-29T14:44:16.998Z,101725.94
2023-05-29T14:46:43.967Z,101728.75
2023-05-29T14:49:10.917Z,101720.72
2023-05-29T14:51:37.743Z,101709.88
2023-05-29T14:54:04.891Z,101709.78
2023-05-29T14:56:31.799Z,101707.78
2023-05-29T14:58:58.751Z,101714.09
2023-05-29T15:01:26.167Z,101708.00
2023-05-29T15:03:53.132Z,101704.47
2023-05-29T15:06:25.199Z,101701.97
2023-05-29T15:08:52.072Z,101705.84
2023-05-29T15:11:20.629Z,101698.72
2023-05-29T15:13:47.593Z,101697.84
2023-05-29T15:16:14.599Z,101699.63
2023-05-29T15:18:41.583Z,101698.72
2023-05-29T15:21:08.755Z,101702.38
2023-05-29T15:23:39.929Z,101697.72
2023-05-29T15:26:06.971Z,101701.22
2023-05-29T15:28:33.990Z,101700.22
2023-05-29T15:31:01.136Z,101692.88
2023-05-29T15:33:31.109Z,101700.22
2023-05-29T15:35:58.381Z,101703.00
2023-05-29T15:38:28.269Z,101698.63
2023-05-29T15:40:57.781Z,101705.03
2023-05-29T15:43:25.233Z,101702.31
2023-05-29T15:45:52.537Z,101689.66
2023-05-29T15:48:19.385Z,101698.88
2023-05-29T15:50:46.187Z,101706.19
2023-05-29T15:53:13.023Z,101700.03
2023-05-29T15:55:43.919Z,101696.38
2023-05-29T15:58:10.874Z,101695.50
2023-05-29T16:00:38.103Z,101699.88
2023-05-29T16:03:15.438Z,101705.19
2023-05-29T16:05:42.545Z,101707.06
2023-05-29T16:08:09.517Z,101701.66
2023-05-29T16:10:41.656Z,101700.75
2023-05-29T16:13:15.766Z,101705.31
2023-05-29T16:15:48.942Z,101705.50
2023-05-29T16:18:18.884Z,101703.03
2023-05-29T16:20:45.901Z,101707.78
2023-05-29T16:23:12.784Z,101707.78
2023-05-29T16:25:39.712Z,101711.47
2023-05-29T16:28:06.597Z,101701.66
2023-05-29T16:30:33.873Z,101702.63
2023-05-29T16:33:00.832Z,101707.09
2023-05-29T16:35:27.761Z,101702.47
2023-05-29T16:37:54.599Z,101706.94
2023-05-29T16:40:24.071Z,101706.16
2023-05-29T16:42:51.040Z,101708.97
2023-05-29T16:45:18.298Z,101700.06
2023-05-29T16:47:45.203Z,101702.88
2023-05-29T16:50:15.448Z,101700.28
2023-05-29T16:52:57.041Z,101702.97
2023-05-29T16:55:26.792Z,101704.06
2023-05-29T16:57:55.952Z,101699.72
2023-05-29T17:00:23.846Z,101700.72
2023-05-29T17:02:51.723Z,101699.09
2023-05-29T17:05:18.684Z,101705.69
2023-05-29T17:07:48.333Z,101707.81
2023-05-29T17:10:15.332Z,101708.09
2023-05-29T17:12:46.637Z,101703.75
2023-05-29T17:15:13.563Z,101707.47
2023-05-29T17:17:43.383Z,101703.19
2023-05-29T17:20:12.383Z,101696.91
2023-05-29T17:22:39.407Z,101706.03
2023-05-29T17:25:14.353Z,101714.16
2023-05-29T17:27:43.618Z,101699.88
2023-05-29T17:30:11.110Z,101707.09
2023-05-29T17:32:38.045Z,101702.53
2023-05-29T17:35:05.952Z,101701.69
2023-05-29T17:37:32.858Z,101715.22
2023-05-29T17:39:59.872Z,101717.97
2023-05-29T17:42:26.775Z,101718.16
2023-05-29T17:44:53.647Z,101720.13
2023-05-29T17:47:30.020Z,101718.41
2023-05-29T17:50:00.092Z,101719.47
2023-05-29T17:52:29.619Z,101713.22
2023-05-29T17:54:57.320Z,101703.44
2023-05-29T17:57:24.604Z,101709.81
2023-05-29T17:59:51.517Z,101712.72
2023-05-29T18:02:18.525Z,101711.09
2023-05-29T18:04:51.238Z,101719.38
2023-05-29T18:07:22.731Z,101713.25
2023-05-29T18:09:49.674Z,101718.84
2023-05-29T18:12:16.717Z,101720.84
2023-05-29T18:14:43.665Z,101726.53
2023-05-29T18:17:10.656Z,101724.00
2023-05-29T18:19:38.253Z,101731.41
2023-05-29T18:22:15.770Z,101735.22
2023-05-29T18:24:42.642Z,101725.59
2023-05-29T18:27:09.891Z,101726.78
2023-05-29T18:29:39.355Z,101727.00
2023-05-29T18:32:07.101Z,101727.13
2023-05-29T18:34:33.932Z,101722.78
2023-05-29T18:37:00.810Z,101733.75
2023-05-29T18:39:27.701Z,101732.19
2023-05-29T18:41:54.679Z,101740.59
2023-05-29T18:44:22.895Z,101732.75
2023-05-29T18:46:49.804Z,101739.25
2023-05-29T18:49:19.306Z,101743.00
2023-05-29T18:51:46.129Z,101743.38
2023-05-29T18:54:13.639Z,101736.44
2023-05-29T18:56:40.440Z,101740.31
2023-05-29T18:59:07.362Z,101753.19
2023-05-29T19:01:35.312Z,101761.59
2023-05-29T19:04:03.493Z,101746.50
2023-05-29T19:06:31.450Z,101746.72
2023-05-29T19:08:59.045Z,101743.28
2023-05-29T19:11:26.497Z,101746.13
2023-05-29T19:13:53.524Z,101753.41
2023-05-29T19:16:22.176Z,101746.50
2023-05-29T19:18:49.408Z,101746.69
2023-05-29T19:21:16.446Z,101750.44
2023-05-29T19:23:43.320Z,101758.72
2023-05-29T19:26:10.376Z,101759.81
2023-05-29T19:28:37.545Z,101764.41
2023-05-29T19:31:04.613Z,101764.50
2023-05-29T19:33:31.570Z,101767.47
2023-05-29T19:35:58.418Z,101780.19
2023-05-29T19:38:25.399Z,101782.16
2023-05-29T19:40:52.367Z,101777.88
2023-05-29T19:43:19.229Z,101774.41
2023-05-29T19:45:49.514Z,101784.44
2023-05-29T19:48:22.029Z,101780.06
2023-05-29T19:50:48.883Z,101789.16
2023-05-29T19:53:16.213Z,101782.09
2023-05-29T19:55:43.136Z,101796.47
2023-05-29T19:58:10.326Z,101798.34
2023-05-29T20:00:37.246Z,101802.88
2023-05-29T20:03:04.256Z,101787.69
2023-05-29T20:05:31.260Z,101807.50
2023-05-29T20:07:58.136Z,101797.81
2023-05-29T20:10:24.946Z,101804.22
2023-05-29T20:12:52.572Z,101800.84
2023-05-29T20:15:19.581Z,101809.09
2023-05-29T20:17:46.849Z,101807.53
2023-05-29T20:20:13.731Z,101814.91
2023-05-29T20:22:40.690Z,101822.25
2023-05-29T20:25:07.796Z,101814.31
2023-05-29T20:27:37.844Z,101816.28
2023-05-29T20:30:05.813Z,101813.75
2023-05-29T20:32:33.153Z,101816.56
2023-05-29T20:35:00.109Z,101817.59
2023-05-29T20:37:29.087Z,101819.44
2023-05-29T20:39:55.915Z,101820.47
2023-05-29T20:42:23.611Z,101815.22
2023-05-29T20:44:51.657Z,101820.75
2023-05-29T20:47:19.498Z,101838.81
2023-05-29T20:49:46.592Z,101840.78
2023-05-29T20:52:13.459Z,101844.50
2023-05-29T20:54:40.355Z,101844.66
2023-05-29T20:57:07.671Z,101839.41
2023-05-29T20:59:34.713Z,101855.59
2023-05-29T21:02:02.202Z,101848.53
2023-05-29T21:04:29.034Z,101854.84
2023-05-29T21:06:56.283Z,101861.19
2023-05-29T21:09:23.378Z,101865.81
2023-05-29T21:11:50.191Z,101857.88
2023-05-29T21:14:17.079Z,101861.63
2023-05-29T21:16:43.889Z,101856.41
2023-05-29T21:19:10.892Z,101859.25
2023-05-29T21:21:37.974Z,101862.09
2023-05-29T21:24:11.681Z,101862.19
2023-05-29T21:26:39.603Z,101862.28
2023-05-29T21:29:06.743Z,101858.81
2023-05-29T21:31:35.360Z,101869.66
2023-05-29T21:34:02.456Z,101873.31
2023-05-29T21:36:29.375Z,101877.84
2023-05-29T21:38:56.496Z,101885.06
2023-05-29T21:41:24.142Z,101883.28
2023-05-29T21:43:51.111Z,101889.63
2023-05-29T21:46:17.985Z,101891.47
2023-05-29T21:48:44.922Z,101891.47
2023-05-29T21:51:11.955Z,101896.00
2023-05-29T21:53:39.933Z,101895.19
2023-05-29T21:56:07.401Z,101897.03
2023-05-29T21:58:34.559Z,101897.13
2023-05-29T22:01:01.720Z,101898.97
2023-05-29T22:03:28.608Z,101896.34
2023-05-29T22:05:55.487Z,101897.25
2023-05-29T22:08:22.345Z,101893.72
2023-05-29T22:10:49.316Z,101890.16
2023-05-29T22:13:16.155Z,101894.69
2023-05-29T22:15:43.019Z,101888.44
2023-05-29T22:18:09.853Z,101888.44
2023-05-29T22:20:37.520Z,101886.72
2023-05-29T22:25:36.088Z,101884.97
2023-05-29T22:28:04.059Z,101874.25
2023-05-29T22:30:30.923Z,101881.41
2023-05-29T22:32:58.234Z,101880.59
2023-05-29T22:35:25.414Z,101879.81
2023-05-29T22:37:52.566Z,101883.56
2023-05-29T22:40:19.435Z,101883.56
2023-05-29T22:42:46.690Z,101899.72
2023-05-29T22:45:14.840Z,101897.09
2023-05-29T22:47:44.453Z,101896.31
2023-05-29T22:50:12.095Z,101898.19
2023-05-29T22:52:39.745Z,101904.50
2023-05-29T22:55:06.987Z,101905.41
2023-05-29T22:57:34.500Z,101902.81
2023-05-29T23:00:01.344Z,101906.41
2023-05-29T23:02:28.781Z,101903.75
2023-05-29T23:04:56.755Z,101907.28
2023-05-29T23:07:23.935Z,101908.19
2023-05-29T23:09:50.768Z,101907.28
2023-05-29T23:12:17.851Z,101908.19
2023-05-29T23:14:44.725Z,101912.66
2023-05-29T23:17:12.026Z,101903.66
2023-05-29T23:19:39.030Z,101901.91
2023-05-29T23:22:06.378Z,101901.03
2023-05-29T23:24:33.381Z,101906.38
2023-05-29T23:27:00.268Z,101905.50
2023-05-29T23:29:27.254Z,101907.34
2023-05-29T23:31:54.205Z,101910.06
2023-05-29T23:34:21.475Z,101896.66
2023-05-29T23:36:48.355Z,101902.91
2023-05-29T23:39:15.264Z,101907.44
2023-05-29T23:41:43.331Z,101905.66
2023-05-29T23:44:11.930Z,101907.47
2023-05-29T23:46:39.735Z,101904.84
2023-05-29T23:49:07.553Z,101906.63
2023-05-29T23:51:34.848Z,101905.78
2023-05-29T23:54:02.285Z,101911.16
2023-05-29T23:56:29.154Z,101920.09
2023-05-29T23:58:56.632Z,101915.69
